Time;durP1;ratioP1;P1;durP2;ratioP2;P2;SDS_P1;SDS_P2;PMS_P1;PMS_P2;Temp;Humidity;BMP_temperature;BMP_pressure;BME280_temperature;BME280_humidity;BME280_pressure;Samples;Min_cycle;Max_cycle;Signal;HPM_P1;HPM_P2
2021/12/18 00:00:38;;;;;;;1.30;1.20;;;21.10;62.90;;;;;;5122532;28;20028;-40
2021/12/18 00:03:05;;;;;;;1.08;0.98;;;21.10;62.80;;;;;;5122853;28;20585;-40
2021/12/18 00:05:31;;;;;;;1.63;1.20;;;21.10;62.80;;;;;;5120235;28;20032;-40
2021/12/18 00:07:57;;;;;;;1.50;1.20;;;21.10;62.80;;;;;;5121621;28;20031;-42
2021/12/18 00:10:24;;;;;;;1.20;1.10;;;21.10;62.80;;;;;;5122836;28;20729;-41
2021/12/18 00:12:53;;;;;;;1.10;1.00;;;21.10;62.90;;;;;;5122185;28;20051;-39
2021/12/18 00:15:20;;;;;;;1.65;1.15;;;21.10;62.80;;;;;;5123102;28;20069;-39
2021/12/18 00:17:46;;;;;;;1.33;1.23;;;21.10;62.80;;;;;;5117366;28;20602;-40
2021/12/18 00:20:14;;;;;;;1.27;1.13;;;21.10;63.60;;;;;;5121820;28;20044;-40
2021/12/18 00:22:40;;;;;;;1.30;1.20;;;21.10;62.80;;;;;;5120289;27;20027;-40
2021/12/18 00:25:06;;;;;;;1.45;1.15;;;21.10;62.70;;;;;;5122568;28;20087;-40
2021/12/18 00:27:32;;;;;;;1.10;1.00;;;21.10;62.70;;;;;;5122528;28;20035;-39
2021/12/18 00:29:59;;;;;;;1.27;1.17;;;21.10;62.70;;;;;;5119649;28;20252;-39
2021/12/18 00:32:25;;;;;;;1.48;1.20;;;21.00;62.60;;;;;;5122460;28;20035;-39
2021/12/18 00:34:51;;;;;;;1.50;1.30;;;21.00;62.60;;;;;;5122005;28;20034;-40
2021/12/18 00:37:17;;;;;;;1.42;1.33;;;21.00;62.60;;;;;;5122231;28;20022;-39
2021/12/18 00:39:54;;;;;;;1.73;1.38;;;21.00;62.60;;;;;;5120298;28;20051;-39
2021/12/18 00:45:03;;;;;;;1.65;1.20;;;21.00;62.60;;;;;;5121843;28;20043;-39
2021/12/18 00:47:29;;;;;;;1.60;1.50;;;21.00;62.60;;;;;;5123038;27;20137;-40
2021/12/18 00:49:56;;;;;;;1.15;1.00;;;21.00;62.60;;;;;;5123491;28;20028;-42
2021/12/18 00:52:23;;;;;;;1.58;1.40;;;21.00;62.50;;;;;;5123797;28;20115;-40
2021/12/18 00:54:49;;;;;;;;;;;21.00;63.40;;;;;;5124317;28;20028;-39
2021/12/18 00:57:15;;;;;;;1.27;1.17;;;20.90;63.20;;;;;;5122038;28;19907;-39
2021/12/18 00:59:41;;;;;;;1.35;1.23;;;20.90;62.40;;;;;;5123225;28;20035;-39
2021/12/18 01:02:07;;;;;;;1.30;1.20;;;20.90;62.40;;;;;;5123652;28;20059;-40
2021/12/18 01:04:34;;;;;;;1.80;1.48;;;20.90;62.40;;;;;;5123473;28;20047;-39
2021/12/18 01:07:00;;;;;;;1.23;1.13;;;20.90;62.50;;;;;;5120565;28;20048;-42
2021/12/18 01:09:47;;;;;;;1.60;1.25;;;20.90;62.50;;;;;;5103007;28;20028;-39
2021/12/18 01:12:13;;;;;;;1.95;1.30;;;20.90;62.40;;;;;;5102901;28;20038;-41
2021/12/18 01:15:00;;;;;;;2.08;1.42;;;20.90;62.50;;;;;;5113309;28;20034;-40
2021/12/18 01:22:49;;;;;;;1.95;1.55;;;20.90;62.40;;;;;;5102501;28;20035;-40
2021/12/18 01:25:19;;;;;;;2.63;1.85;;;20.90;62.40;;;;;;5103029;28;20031;-39
2021/12/18 01:27:46;;;;;;;2.05;1.70;;;20.80;62.40;;;;;;5113534;28;20032;-39
2021/12/18 01:30:13;;;;;;;2.08;1.70;;;20.90;62.50;;;;;;5119571;27;20032;-41
2021/12/18 01:32:40;;;;;;;2.42;1.75;;;20.80;62.40;;;;;;5120995;28;20024;-41
2021/12/18 01:35:06;;;;;;;4.00;2.63;;;20.80;62.50;;;;;;5120805;28;20034;-39
2021/12/18 01:37:32;;;;;;;2.83;2.33;;;20.80;62.50;;;;;;5120811;28;20271;-39
2021/12/18 01:39:58;;;;;;;5.57;3.60;;;20.80;62.30;;;;;;5121146;28;20040;-39
2021/12/18 01:52:40;;;;;;;6.70;4.50;;;21.10;63.70;;;;;;5121137;28;20031;-40
2021/12/18 01:55:07;;;;;;;6.97;4.25;;;21.10;63.60;;;;;;5121214;28;20099;-40
2021/12/18 01:57:33;;;;;;;6.05;4.43;;;21.10;63.70;;;;;;5121414;28;20032;-39
2021/12/18 01:59:59;;;;;;;6.50;4.70;;;21.10;63.60;;;;;;5120539;28;20065;-39
2021/12/18 02:02:26;;;;;;;7.30;4.90;;;21.10;63.80;;;;;;5120507;28;20044;-40
2021/12/18 02:04:52;;;;;;;7.35;5.03;;;21.20;64.00;;;;;;5120410;28;20091;-40
2021/12/18 02:07:18;;;;;;;6.85;4.85;;;21.20;63.90;;;;;;5119580;28;20115;-39
2021/12/18 02:12:18;;;;;;;7.93;5.40;;;21.20;63.80;;;;;;5118575;28;20031;-41
2021/12/18 02:23:12;;;;;;;;;;;21.30;63.80;;;;;;5091574;28;20115;-40
2021/12/18 02:25:38;;;;;;;7.35;5.15;;;21.30;63.80;;;;;;5097922;28;19904;-39
2021/12/18 02:28:07;;;;;;;6.75;5.07;;;21.30;63.60;;;;;;5097222;28;20024;-39
2021/12/18 02:30:34;;;;;;;7.45;5.30;;;21.40;63.80;;;;;;5096868;28;20043;-39
2021/12/18 02:33:00;;;;;;;7.70;5.57;;;21.40;63.70;;;;;;5093027;28;20040;-40
2021/12/18 02:35:28;;;;;;;9.15;5.43;;;21.40;63.60;;;;;;5097475;28;20196;-40
2021/12/18 02:38:18;;;;;;;7.72;5.38;;;21.40;63.60;;;;;;5094061;28;20067;-41
2021/12/18 02:43:14;;;;;;;7.88;5.38;;;21.40;63.40;;;;;;5093934;28;20438;-40
2021/12/18 02:45:40;;;;;;;7.00;4.82;;;21.40;63.40;;;;;;5097337;28;20032;-39
2021/12/18 02:48:06;;;;;;;7.05;5.22;;;21.40;63.50;;;;;;5097317;28;20052;-40
2021/12/18 02:50:33;;;;;;;8.48;5.55;;;21.50;63.40;;;;;;5097102;28;20032;-39
2021/12/18 02:52:59;;;;;;;7.70;5.38;;;21.50;63.50;;;;;;5096893;28;20040;-39
2021/12/18 02:55:25;;;;;;;7.95;5.30;;;21.50;63.40;;;;;;5095377;28;20032;-39
2021/12/18 02:57:51;;;;;;;8.65;5.35;;;21.50;63.40;;;;;;5100005;28;20589;-40
2021/12/18 03:00:17;;;;;;;6.82;5.03;;;21.40;63.30;;;;;;5116558;28;20035;-40
2021/12/18 03:02:45;;;;;;;7.32;4.90;;;21.50;63.30;;;;;;5122562;28;20091;-40
2021/12/18 03:05:18;;;;;;;6.25;4.65;;;21.40;63.10;;;;;;5125789;28;20031;-39
2021/12/18 03:07:46;;;;;;;6.32;4.65;;;21.40;63.00;;;;;;5116278;28;20109;-39
2021/12/18 03:25:45;;;;;;;6.80;4.72;;;21.40;62.70;;;;;;5105212;28;20036;-41
2021/12/18 03:28:13;;;;;;;6.25;4.65;;;21.40;62.70;;;;;;5125860;28;20028;-39
2021/12/18 03:30:39;;;;;;;7.10;4.90;;;21.30;62.60;;;;;;5116521;27;20097;-39
2021/12/18 03:33:05;;;;;;;7.20;5.20;;;21.30;62.60;;;;;;5125095;27;20027;-39
2021/12/18 03:35:31;;;;;;;7.60;4.88;;;21.30;62.60;;;;;;5117478;28;20024;-40
2021/12/18 03:37:58;;;;;;;7.18;4.57;;;21.30;62.60;;;;;;5120390;28;20032;-40
2021/12/18 03:40:25;;;;;;;6.30;4.18;;;21.30;62.60;;;;;;5123782;28;20032;-41
2021/12/18 03:42:51;;;;;;;6.55;4.63;;;21.20;62.50;;;;;;5123770;28;20592;-39
2021/12/18 03:45:17;;;;;;;7.30;4.93;;;21.20;62.50;;;;;;5122716;28;20063;-39
2021/12/18 03:47:44;;;;;;;5.23;4.23;;;21.20;62.50;;;;;;5122740;28;20130;-39
2021/12/18 03:50:10;;;;;;;7.33;4.80;;;21.20;63.20;;;;;;5123031;28;20296;-40
2021/12/18 03:52:36;;;;;;;5.20;4.13;;;21.20;62.40;;;;;;5126139;27;20275;-39
2021/12/18 03:55:03;;;;;;;5.85;4.57;;;21.20;62.40;;;;;;5120555;28;20028;-39
2021/12/18 03:57:29;;;;;;;6.82;4.60;;;21.20;62.40;;;;;;5123079;28;20034;-39
2021/12/18 03:59:56;;;;;;;4.97;3.92;;;21.20;62.40;;;;;;5122660;28;20044;-39
2021/12/18 04:02:22;;;;;;;6.20;4.63;;;21.20;62.40;;;;;;5122873;28;20058;-39
2021/12/18 04:04:48;;;;;;;6.40;4.32;;;21.20;62.40;;;;;;5122510;28;20057;-39
2021/12/18 04:07:15;;;;;;;6.18;4.35;;;21.20;62.40;;;;;;5122286;27;20039;-40
2021/12/18 04:09:41;;;;;;;6.78;4.45;;;21.20;62.40;;;;;;5122925;28;20028;-39
2021/12/18 04:12:08;;;;;;;6.37;4.20;;;21.20;62.40;;;;;;5117519;28;20031;-41
2021/12/18 04:14:34;;;;;;;5.55;4.28;;;21.10;62.40;;;;;;5121815;28;20134;-39
2021/12/18 04:17:01;;;;;;;5.03;3.92;;;21.10;62.40;;;;;;5122203;28;20783;-39
2021/12/18 04:19:27;;;;;;;6.50;4.38;;;21.10;62.30;;;;;;5122595;28;20043;-40
2021/12/18 04:21:53;;;;;;;6.15;4.22;;;21.10;62.30;;;;;;5122926;28;20110;-39
2021/12/18 04:24:19;;;;;;;5.45;4.00;;;21.10;62.30;;;;;;5122511;28;20028;-39
2021/12/18 04:26:46;;;;;;;5.15;4.30;;;21.10;62.30;;;;;;5122666;28;20107;-39
2021/12/18 04:29:12;;;;;;;4.93;4.22;;;21.10;62.40;;;;;;5120132;28;20037;-42
2021/12/18 04:31:38;;;;;;;6.57;4.18;;;21.10;62.40;;;;;;5121548;28;20031;-38
2021/12/18 04:34:04;;;;;;;5.57;3.70;;;21.10;62.30;;;;;;5122143;28;20031;-40
2021/12/18 04:36:31;;;;;;;6.07;4.60;;;21.10;62.30;;;;;;5121596;28;20031;-39
2021/12/18 04:38:57;;;;;;;5.13;4.00;;;21.10;62.30;;;;;;5121382;27;20047;-39
2021/12/18 04:41:35;;;;;;;5.95;4.18;;;21.00;62.30;;;;;;5122208;28;20023;-39
2021/12/18 04:44:02;;;;;;;6.18;3.97;;;21.00;62.30;;;;;;5120911;28;20028;-40
2021/12/18 04:46:28;;;;;;;6.22;3.85;;;21.00;62.40;;;;;;5121908;28;20034;-39
2021/12/18 04:48:54;;;;;;;5.82;4.07;;;21.00;62.30;;;;;;5122023;28;20062;-40
2021/12/18 04:51:20;;;;;;;4.40;3.40;;;21.00;62.40;;;;;;5122334;28;20031;-40
2021/12/18 04:53:46;;;;;;;4.85;3.58;;;21.00;62.40;;;;;;5121778;28;20053;-39
2021/12/18 04:56:12;;;;;;;6.00;4.20;;;21.00;62.40;;;;;;5122070;28;20028;-40
2021/12/18 04:58:38;;;;;;;5.40;3.53;;;20.90;62.40;;;;;;5122007;28;20027;-40
2021/12/18 05:01:04;;;;;;;5.65;4.05;;;20.90;62.40;;;;;;5121816;28;20825;-40
2021/12/18 05:03:31;;;;;;;4.68;3.50;;;20.90;62.40;;;;;;5121872;28;20028;-40
2021/12/18 05:06:00;;;;;;;6.25;3.78;;;20.90;62.30;;;;;;5121870;28;20051;-39
2021/12/18 05:08:26;;;;;;;5.13;4.07;;;20.90;62.40;;;;;;5120975;28;20044;-40
2021/12/18 05:10:52;;;;;;;5.25;3.85;;;20.90;62.40;;;;;;5121956;28;20045;-40
2021/12/18 05:13:18;;;;;;;4.45;3.70;;;20.90;62.30;;;;;;5121074;28;20036;-39
2021/12/18 05:15:44;;;;;;;4.97;3.80;;;20.90;62.30;;;;;;5120404;28;20642;-40
2021/12/18 05:18:10;;;;;;;5.93;3.63;;;20.90;62.30;;;;;;5121817;28;20050;-38
2021/12/18 05:20:37;;;;;;;5.93;3.90;;;20.90;62.40;;;;;;5121732;28;20027;-39
2021/12/18 05:23:03;;;;;;;5.75;3.63;;;20.90;62.40;;;;;;5121870;28;20123;-39
2021/12/18 05:25:29;;;;;;;5.90;3.83;;;20.90;62.40;;;;;;5120830;28;20054;-39
2021/12/18 05:27:55;;;;;;;5.72;3.88;;;20.90;62.40;;;;;;5121511;28;20458;-39
2021/12/18 05:30:21;;;;;;;5.30;4.18;;;20.90;62.40;;;;;;5123588;27;20034;-38
2021/12/18 05:32:47;;;;;;;4.70;3.97;;;20.90;62.30;;;;;;5121677;28;20132;-39
2021/12/18 05:35:17;;;;;;;4.80;3.60;;;20.90;62.60;;;;;;5121254;28;20053;-42
2021/12/18 05:37:47;;;;;;;5.35;3.50;;;21.00;62.90;;;;;;5121233;28;20048;-41
2021/12/18 05:40:16;;;;;;;5.00;3.13;;;21.00;62.70;;;;;;5121657;28;20045;-40
2021/12/18 05:42:42;;;;;;;4.18;3.42;;;21.00;62.90;;;;;;5121700;28;20415;-39
2021/12/18 05:45:08;;;;;;;5.22;3.80;;;21.00;63.10;;;;;;5120807;28;20083;-40
2021/12/18 05:47:35;;;;;;;4.32;3.70;;;21.00;63.40;;;;;;5117995;28;20065;-39
2021/12/18 05:50:02;;;;;;;4.85;3.58;;;21.00;63.30;;;;;;5121503;28;20040;-39
2021/12/18 05:52:28;;;;;;;6.43;3.72;;;21.00;63.20;;;;;;5121318;28;20031;-39
2021/12/18 05:54:54;;;;;;;5.72;3.72;;;20.90;63.20;;;;;;5120191;28;20027;-41
2021/12/18 05:57:20;;;;;;;4.68;3.60;;;20.90;63.20;;;;;;5121026;28;20027;-39
2021/12/18 05:59:46;;;;;;;4.05;3.10;;;20.90;63.10;;;;;;5121417;28;20085;-39
2021/12/18 06:02:12;;;;;;;3.63;2.92;;;20.90;63.10;;;;;;5121268;28;20091;-39
2021/12/18 06:04:39;;;;;;;5.70;3.58;;;20.90;63.00;;;;;;5117736;28;20031;-39
2021/12/18 06:07:07;;;;;;;3.63;2.67;;;20.90;63.00;;;;;;5120992;28;20031;-38
2021/12/18 06:09:35;;;;;;;5.55;3.85;;;20.90;63.00;;;;;;5121201;28;20036;-38
2021/12/18 06:12:01;;;;;;;5.45;3.45;;;20.90;63.80;;;;;;5120763;28;20087;-39
2021/12/18 06:14:28;;;;;;;4.90;3.37;;;20.90;63.00;;;;;;5117817;28;20819;-39
2021/12/18 06:16:54;;;;;;;4.93;3.42;;;20.90;63.70;;;;;;5120374;28;20271;-39
2021/12/18 06:19:21;;;;;;;5.00;3.58;;;20.90;63.00;;;;;;5120969;28;20099;-39
2021/12/18 06:21:47;;;;;;;5.28;3.30;;;20.90;63.00;;;;;;5120988;28;20032;-39
2021/12/18 06:24:13;;;;;;;4.82;3.42;;;20.90;63.00;;;;;;5121294;28;20087;-39
2021/12/18 06:26:39;;;;;;;4.25;3.60;;;20.90;63.30;;;;;;5120256;28;20036;-39
2021/12/18 06:29:05;;;;;;;5.20;3.63;;;20.90;63.40;;;;;;5121101;28;20076;-40
2021/12/18 06:31:33;;;;;;;4.20;3.67;;;20.90;63.50;;;;;;5120287;28;20036;-39
2021/12/18 06:33:59;;;;;;;4.78;3.30;;;20.90;63.40;;;;;;5120903;28;20083;-39
2021/12/18 06:36:25;;;;;;;5.53;3.65;;;20.90;63.40;;;;;;5120292;28;20028;-40
2021/12/18 06:38:52;;;;;;;4.78;3.60;;;20.90;63.40;;;;;;5124226;27;20082;-39
2021/12/18 06:41:18;;;;;;;4.45;3.65;;;20.90;63.40;;;;;;5124901;27;20052;-39
2021/12/18 06:43:44;;;;;;;4.75;3.45;;;20.90;63.30;;;;;;5124282;28;20407;-39
2021/12/18 06:46:10;;;;;;;4.43;3.33;;;20.90;63.30;;;;;;5123921;28;20028;-39
2021/12/18 06:48:36;;;;;;;5.20;3.55;;;20.80;63.30;;;;;;5124684;28;20062;-39
2021/12/18 06:51:02;;;;;;;5.57;3.63;;;20.80;63.20;;;;;;5124719;28;20546;-40
2021/12/18 06:53:28;;;;;;;2.83;2.28;;;20.90;63.30;;;;;;5124084;28;20032;-39
2021/12/18 06:55:55;;;;;;;4.68;3.13;;;21.00;63.40;;;;;;5124791;28;20023;-39
2021/12/18 06:58:21;;;;;;;4.97;3.30;;;21.00;63.50;;;;;;5124041;28;20039;-39
2021/12/18 07:00:47;;;;;;;3.35;2.55;;;21.00;63.40;;;;;;5123927;28;20752;-39
2021/12/18 07:03:13;;;;;;;4.22;3.03;;;21.00;63.80;;;;;;5124191;27;20055;-38
2021/12/18 07:05:39;;;;;;;4.35;3.03;;;21.00;63.70;;;;;;5124551;28;20028;-39
2021/12/18 07:08:06;;;;;;;5.20;3.63;;;20.90;63.60;;;;;;5123751;27;20028;-39
2021/12/18 07:10:32;;;;;;;4.18;3.10;;;20.90;63.60;;;;;;5124636;28;20445;-38
2021/12/18 07:12:58;;;;;;;4.10;2.95;;;20.90;63.60;;;;;;5124413;28;20046;-40
2021/12/18 07:15:24;;;;;;;4.37;3.30;;;20.90;63.70;;;;;;5123704;28;20027;-39
2021/12/18 07:17:50;;;;;;;4.65;3.40;;;20.90;63.60;;;;;;5123629;28;20055;-40
2021/12/18 07:20:17;;;;;;;5.63;3.28;;;20.90;63.60;;;;;;5124381;28;20404;-39
2021/12/18 07:22:43;;;;;;;4.97;3.25;;;20.90;63.60;;;;;;5123657;28;20035;-40
2021/12/18 07:25:09;;;;;;;4.28;3.33;;;20.90;63.50;;;;;;5124397;28;20027;-39
2021/12/18 07:27:36;;;;;;;3.55;3.05;;;20.90;63.40;;;;;;5124150;28;20028;-38
2021/12/18 07:30:02;;;;;;;4.68;3.05;;;20.90;63.40;;;;;;5121419;28;20031;-39
2021/12/18 07:32:29;;;;;;;4.45;3.28;;;20.90;63.30;;;;;;5123636;28;20035;-39
2021/12/18 07:34:56;;;;;;;4.10;2.88;;;20.90;63.60;;;;;;5123768;28;20035;-40
2021/12/18 07:37:24;;;;;;;4.22;3.05;;;21.00;63.70;;;;;;5123617;28;20023;-41
2021/12/18 07:39:53;;;;;;;3.42;2.75;;;21.00;63.60;;;;;;5123256;28;20130;-39
2021/12/18 07:42:20;;;;;;;4.20;2.78;;;21.00;63.70;;;;;;5123816;28;20063;-39
2021/12/18 07:44:46;;;;;;;3.23;2.83;;;21.00;63.90;;;;;;5123587;28;20032;-39
2021/12/18 07:47:12;;;;;;;3.78;3.08;;;21.00;63.80;;;;;;5122797;28;20035;-39
2021/12/18 07:49:39;;;;;;;3.72;3.05;;;21.00;63.90;;;;;;5122812;28;20047;-39
2021/12/18 07:52:05;;;;;;;3.20;2.80;;;21.00;63.90;;;;;;5123295;28;20031;-40
2021/12/18 07:54:31;;;;;;;3.67;2.87;;;21.00;63.80;;;;;;5123499;28;20055;-39
2021/12/18 07:56:57;;;;;;;3.75;3.08;;;20.90;63.70;;;;;;5123189;28;20260;-39
2021/12/18 07:59:23;;;;;;;3.60;3.05;;;20.90;63.70;;;;;;5122900;28;20031;-39
2021/12/18 08:01:50;;;;;;;3.03;2.72;;;20.90;63.70;;;;;;5122134;28;20023;-39
2021/12/18 08:04:16;;;;;;;3.45;2.92;;;20.90;63.70;;;;;;5122188;28;20019;-38
2021/12/18 08:06:42;;;;;;;3.80;3.28;;;20.90;63.70;;;;;;5122454;28;20036;-39
2021/12/18 08:09:08;;;;;;;4.35;3.03;;;20.90;63.70;;;;;;5122932;28;20027;-38
2021/12/18 08:11:34;;;;;;;3.53;3.13;;;20.90;63.60;;;;;;5121012;28;20047;-41
2021/12/18 08:14:00;;;;;;;4.15;3.63;;;20.90;63.50;;;;;;5122451;28;20061;-39
2021/12/18 08:16:26;;;;;;;3.67;2.78;;;20.90;63.50;;;;;;5123301;28;20020;-40
2021/12/18 08:18:52;;;;;;;3.35;2.97;;;20.90;63.40;;;;;;5124970;28;20032;-40
2021/12/18 08:21:18;;;;;;;3.65;2.80;;;21.00;63.70;;;;;;5124705;28;20344;-39
2021/12/18 08:23:45;;;;;;;4.45;3.22;;;21.00;63.80;;;;;;5124768;27;20034;-39
2021/12/18 08:26:11;;;;;;;3.97;2.90;;;21.00;63.70;;;;;;5125038;28;20495;-39
2021/12/18 08:28:37;;;;;;;3.45;2.72;;;21.00;64.00;;;;;;5124995;28;20019;-39
2021/12/18 08:31:03;;;;;;;3.83;2.92;;;21.00;64.10;;;;;;5124647;28;20040;-39
2021/12/18 08:33:29;;;;;;;3.22;2.92;;;21.00;64.10;;;;;;5124653;28;20028;-39
2021/12/18 08:35:55;;;;;;;2.83;2.60;;;21.00;64.00;;;;;;5124703;28;20032;-39
2021/12/18 08:38:21;;;;;;;3.35;3.00;;;21.00;64.00;;;;;;5115970;28;20028;-39
2021/12/18 08:40:49;;;;;;;3.38;2.97;;;20.90;63.90;;;;;;5124759;28;20034;-39
2021/12/18 08:43:15;;;;;;;3.10;2.80;;;20.90;64.00;;;;;;5124727;28;20027;-39
2021/12/18 08:45:41;;;;;;;3.50;2.83;;;20.90;63.90;;;;;;5124131;28;20049;-39
2021/12/18 08:48:07;;;;;;;4.05;3.35;;;20.90;63.80;;;;;;5124576;28;20143;-40
2021/12/18 08:50:33;;;;;;;3.38;3.08;;;20.90;63.80;;;;;;5124476;28;20063;-40
2021/12/18 08:52:59;;;;;;;5.18;3.33;;;20.90;63.70;;;;;;5124447;28;20044;-40
2021/12/18 08:55:26;;;;;;;3.45;3.03;;;20.90;63.60;;;;;;5124166;28;20034;-39
2021/12/18 08:57:52;;;;;;;3.13;2.78;;;20.90;63.60;;;;;;5106500;28;20121;-39
2021/12/18 09:00:20;;;;;;;3.22;2.40;;;20.90;63.60;;;;;;5103181;28;20088;-38
2021/12/18 09:02:47;;;;;;;3.42;2.80;;;20.90;63.50;;;;;;5103845;28;20036;-40
2021/12/18 09:05:14;;;;;;;2.78;2.50;;;21.00;64.40;;;;;;5103479;28;20024;-40
2021/12/18 09:07:40;;;;;;;4.20;3.40;;;21.00;63.90;;;;;;5112691;28;20031;-39
2021/12/18 09:10:06;;;;;;;3.35;2.90;;;21.00;64.00;;;;;;5124041;28;20030;-39
2021/12/18 09:12:33;;;;;;;4.32;2.72;;;21.00;63.90;;;;;;5124199;28;20041;-39
2021/12/18 09:14:59;;;;;;;2.92;2.63;;;21.00;64.20;;;;;;5123831;28;20031;-39
2021/12/18 09:17:25;;;;;;;3.55;3.08;;;21.00;64.20;;;;;;5123996;28;20063;-39
2021/12/18 09:19:51;;;;;;;3.80;2.92;;;21.00;64.20;;;;;;5116380;28;20093;-39
2021/12/18 09:22:18;;;;;;;2.97;2.67;;;21.00;64.20;;;;;;5103416;28;20028;-39
2021/12/18 09:24:46;;;;;;;3.08;2.78;;;21.00;64.20;;;;;;5103254;28;20020;-39
2021/12/18 09:27:12;;;;;;;3.13;2.83;;;20.90;64.00;;;;;;5115998;28;20085;-39
2021/12/18 09:29:38;;;;;;;3.00;2.70;;;20.90;64.00;;;;;;5123873;28;20049;-39
2021/12/18 09:32:04;;;;;;;3.10;2.80;;;20.90;64.00;;;;;;5123608;28;20050;-39
2021/12/18 09:34:31;;;;;;;4.25;2.72;;;20.90;63.90;;;;;;5123678;28;20024;-39
2021/12/18 09:36:57;;;;;;;3.28;2.97;;;20.90;63.80;;;;;;5120391;28;20038;-38
2021/12/18 09:39:23;;;;;;;3.08;2.78;;;20.90;63.80;;;;;;5115945;28;20032;-39
2021/12/18 09:41:51;;;;;;;2.63;2.42;;;20.90;63.80;;;;;;5123752;28;20023;-39
2021/12/18 09:44:33;;;;;;;3.17;2.80;;;20.90;63.80;;;;;;5123726;28;20376;-39
2021/12/18 09:46:59;;;;;;;3.97;2.88;;;20.90;63.80;;;;;;5123146;28;20070;-39
2021/12/18 09:49:25;;;;;;;3.03;2.60;;;21.00;63.80;;;;;;5123148;28;20051;-39
2021/12/18 09:51:52;;;;;;;3.55;3.03;;;21.00;64.10;;;;;;5123391;28;20023;-39
2021/12/18 09:54:19;;;;;;;3.28;2.92;;;21.00;64.20;;;;;;5123648;28;20101;-39
2021/12/18 09:56:46;;;;;;;3.10;2.70;;;21.00;64.10;;;;;;5123096;28;20035;-38
2021/12/18 09:59:12;;;;;;;3.17;2.88;;;21.00;64.40;;;;;;5123273;28;20117;-39
2021/12/18 10:01:38;;;;;;;3.10;2.80;;;21.00;64.30;;;;;;5122738;28;20051;-39
2021/12/18 10:04:05;;;;;;;3.10;2.57;;;21.00;64.30;;;;;;5123396;28;20100;-39
2021/12/18 10:06:42;;;;;;;2.87;2.57;;;21.00;64.30;;;;;;5120118;28;20685;-39
2021/12/18 10:09:17;;;;;;;3.28;2.88;;;21.00;64.30;;;;;;5102715;28;20273;-39
2021/12/18 10:11:55;;;;;;;3.05;2.70;;;21.00;64.30;;;;;;5105293;28;20042;-39
2021/12/18 10:14:43;;;;;;;3.85;2.75;;;20.90;64.20;;;;;;5112729;28;20027;-38
2021/12/18 10:17:26;;;;;;;3.38;3.00;;;21.00;64.20;;;;;;5126909;28;20039;-39
2021/12/18 10:19:54;;;;;;;3.10;2.80;;;20.90;64.10;;;;;;5119843;28;20032;-39
2021/12/18 10:22:20;;;;;;;3.00;2.65;;;20.90;64.10;;;;;;5106528;28;20083;-39
2021/12/18 10:25:03;;;;;;;3.60;3.00;;;20.90;64.00;;;;;;5106839;28;20059;-39
2021/12/18 10:27:29;;;;;;;2.63;2.42;;;20.90;64.00;;;;;;5106470;28;20028;-39
2021/12/18 10:30:07;;;;;;;4.10;3.08;;;20.90;63.90;;;;;;5106753;28;20032;-40
2021/12/18 10:32:33;;;;;;;2.90;2.58;;;20.90;63.90;;;;;;5114875;28;20027;-39
2021/12/18 10:34:59;;;;;;;3.53;2.60;;;20.90;63.90;;;;;;5127089;28;20096;-39
2021/12/18 10:37:29;;;;;;;2.78;2.58;;;20.90;64.00;;;;;;5119620;28;20020;-40
2021/12/18 10:40:11;;;;;;;3.25;2.92;;;21.00;64.20;;;;;;5106313;28;20055;-39
2021/12/18 10:42:40;;;;;;;3.80;3.08;;;21.00;64.30;;;;;;5106580;28;20016;-39
2021/12/18 10:45:21;;;;;;;2.92;2.72;;;21.00;64.20;;;;;;5118265;28;20063;-40
2021/12/18 10:48:02;;;;;;;3.40;3.10;;;21.10;64.60;;;;;;5126356;28;20516;-39
2021/12/18 10:50:34;;;;;;;3.67;3.20;;;21.00;64.60;;;;;;5126493;27;20031;-39
2021/12/18 10:53:04;;;;;;;2.88;2.55;;;21.00;64.50;;;;;;5126435;28;20023;-41
2021/12/18 10:55:40;;;;;;;2.92;2.63;;;21.00;64.50;;;;;;5126827;28;20027;-39
2021/12/18 10:58:08;;;;;;;3.30;3.00;;;21.00;64.60;;;;;;5126500;28;20020;-39
2021/12/18 11:00:49;;;;;;;3.08;2.78;;;21.00;64.30;;;;;;5126169;28;20052;-39
2021/12/18 11:03:24;;;;;;;3.20;2.90;;;21.00;64.30;;;;;;5126284;28;20024;-39
2021/12/18 11:06:19;;;;;;;3.17;2.85;;;20.90;64.20;;;;;;5126513;28;20053;-38
2021/12/18 11:09:04;;;;;;;3.88;3.38;;;20.90;64.20;;;;;;5108977;28;20036;-39
2021/12/18 11:14:38;;;;;;;3.25;2.95;;;20.90;64.10;;;;;;5113393;28;20039;-39
2021/12/18 11:17:06;;;;;;;3.15;2.85;;;20.90;64.20;;;;;;5126089;27;20035;-39
2021/12/18 11:19:32;;;;;;;2.58;2.38;;;20.90;64.10;;;;;;5119348;27;20039;-39
2021/12/18 11:22:01;;;;;;;2.75;2.55;;;20.90;64.00;;;;;;5123211;28;20047;-39
2021/12/18 11:24:36;;;;;;;3.00;2.67;;;20.90;64.60;;;;;;5120473;28;20087;-39
2021/12/18 11:27:06;;;;;;;2.75;2.55;;;21.00;64.30;;;;;;5121854;28;20083;-39
2021/12/18 11:29:50;;;;;;;3.10;2.80;;;21.00;64.30;;;;;;5123499;28;20020;-39
2021/12/18 11:32:24;;;;;;;3.22;2.60;;;21.00;64.30;;;;;;5123255;28;20012;-39
2021/12/18 11:34:51;;;;;;;2.88;2.60;;;21.10;64.60;;;;;;5123820;28;20059;-39
2021/12/18 11:37:18;;;;;;;;;;;21.00;64.70;;;;;;5121397;27;20110;-39
2021/12/18 11:39:44;;;;;;;3.20;2.88;;;21.00;64.60;;;;;;5123254;28;19983;-39
2021/12/18 11:42:11;;;;;;;3.00;2.67;;;21.00;64.60;;;;;;5123198;28;20024;-39
2021/12/18 11:44:40;;;;;;;2.92;2.63;;;21.00;64.40;;;;;;5123337;28;20162;-39
2021/12/18 11:47:24;;;;;;;2.70;2.50;;;21.00;64.40;;;;;;5123551;28;20560;-39
2021/12/18 11:49:51;;;;;;;2.55;2.35;;;21.00;64.40;;;;;;5122714;28;20085;-39
2021/12/18 11:52:17;;;;;;;2.67;2.47;;;21.00;64.40;;;;;;5122495;28;20023;-39
2021/12/18 11:54:57;;;;;;;2.90;2.60;;;21.00;64.40;;;;;;5122778;28;20028;-40
2021/12/18 11:57:43;;;;;;;3.33;2.95;;;20.90;64.30;;;;;;5123283;28;20024;-39
2021/12/18 12:00:18;;;;;;;3.10;2.80;;;20.90;64.30;;;;;;5120616;28;20069;-39
2021/12/18 12:02:53;;;;;;;3.22;2.92;;;20.90;64.30;;;;;;5122146;28;20031;-39
2021/12/18 12:05:43;;;;;;;2.88;2.67;;;20.90;64.20;;;;;;5122794;28;20031;-39
2021/12/18 12:08:20;;;;;;;2.95;2.65;;;20.90;64.30;;;;;;5120514;28;20027;-39
2021/12/18 12:11:18;;;;;;;3.78;2.80;;;20.90;64.30;;;;;;5123133;28;20655;-39
2021/12/18 12:13:55;;;;;;;2.85;2.53;;;20.90;64.30;;;;;;5122777;27;20038;-39
2021/12/18 12:16:57;;;;;;;2.90;2.60;;;21.00;64.60;;;;;;5120767;28;20066;-39
2021/12/18 12:19:24;;;;;;;2.80;2.47;;;21.00;64.60;;;;;;5059249;28;20029;-40
2021/12/18 12:21:55;;;;;;;2.55;2.35;;;21.10;64.60;;;;;;5058948;28;20067;-39
2021/12/18 12:24:25;;;;;;;3.40;2.90;;;21.00;64.90;;;;;;5059344;28;20051;-39
2021/12/18 12:26:53;;;;;;;3.20;2.90;;;21.00;64.90;;;;;;5059008;28;20049;-39
2021/12/18 12:29:19;;;;;;;;;;;21.00;64.70;;;;;;5059889;28;20029;-39
2021/12/18 12:31:59;;;;;;;2.65;2.45;;;21.00;64.60;;;;;;5058215;28;19944;-39
2021/12/18 12:34:31;;;;;;;3.08;2.78;;;21.00;64.60;;;;;;5058851;28;20080;-39
2021/12/18 12:36:58;;;;;;;2.45;2.25;;;21.00;64.60;;;;;;5057421;28;20027;-40
2021/12/18 12:39:25;;;;;;;2.60;2.40;;;21.00;64.60;;;;;;5025969;28;20109;-40
2021/12/18 12:41:52;;;;;;;2.92;2.63;;;21.00;64.50;;;;;;5058812;28;20206;-39
2021/12/18 12:44:35;;;;;;;3.05;2.80;;;21.00;64.60;;;;;;5059095;28;20048;-39
2021/12/18 12:47:26;;;;;;;2.65;2.45;;;20.90;64.50;;;;;;5058671;28;20070;-39
2021/12/18 12:50:12;;;;;;;3.17;2.88;;;20.90;64.60;;;;;;5058691;28;20049;-41
2021/12/18 12:53:02;;;;;;;2.67;2.40;;;20.90;64.60;;;;;;5068791;28;20039;-38
2021/12/18 12:55:39;;;;;;;2.85;2.65;;;20.90;64.60;;;;;;5120265;28;20031;-40
2021/12/18 12:58:07;;;;;;;2.90;2.70;;;20.90;64.60;;;;;;5121762;28;20034;-39
2021/12/18 13:00:34;;;;;;;3.05;2.75;;;20.90;64.60;;;;;;5104042;28;20046;-39
2021/12/18 13:03:12;;;;;;;2.80;2.60;;;20.90;64.50;;;;;;5121652;28;20058;-39
2021/12/18 13:05:51;;;;;;;2.45;2.25;;;20.90;64.50;;;;;;5120385;28;20027;-39
2021/12/18 13:08:17;;;;;;;2.80;2.60;;;20.90;64.40;;;;;;5122141;28;20019;-40
2021/12/18 13:10:43;;;;;;;2.60;2.40;;;20.90;64.40;;;;;;5124092;28;20096;-39
2021/12/18 13:13:15;;;;;;;2.95;2.65;;;21.00;64.60;;;;;;5123558;28;20031;-39
2021/12/18 13:15:57;;;;;;;2.65;2.45;;;21.00;64.80;;;;;;5123909;28;20024;-39
2021/12/18 13:18:26;;;;;;;2.70;2.50;;;21.00;64.70;;;;;;5123711;28;20056;-39
2021/12/18 13:21:00;;;;;;;3.08;2.78;;;21.00;65.00;;;;;;5123904;28;20045;-39
2021/12/18 13:23:39;;;;;;;2.60;2.40;;;21.00;65.00;;;;;;5123401;28;20049;-39
2021/12/18 13:26:07;;;;;;;2.78;2.50;;;21.00;64.90;;;;;;5123315;28;20023;-38
2021/12/18 13:28:33;;;;;;;2.90;2.63;;;21.00;64.80;;;;;;5103286;28;20024;-39
2021/12/18 13:31:00;;;;;;;2.85;2.60;;;21.00;64.80;;;;;;5103377;28;20032;-39
2021/12/18 13:33:27;;;;;;;2.80;2.60;;;20.90;64.80;;;;;;5102679;28;20051;-41
2021/12/18 13:35:58;;;;;;;2.72;2.53;;;20.90;64.70;;;;;;5103185;28;20028;-39
2021/12/18 13:38:26;;;;;;;2.45;2.25;;;20.90;64.80;;;;;;5102883;28;20695;-38
2021/12/18 13:40:51;;;;;;;;;;;20.90;64.80;;;;;;5103693;28;20512;-41
2021/12/18 13:43:22;;;;;;;2.65;2.45;;;20.90;64.80;;;;;;5102660;28;19972;-38
2021/12/18 13:45:48;;;;;;;2.65;2.45;;;20.90;64.70;;;;;;5120613;28;20046;-39